Time;durP1;ratioP1;P1;durP2;ratioP2;P2;SDS_P1;SDS_P2;PMS_P1;PMS_P2;Temp;Humidity;BMP_temperature;BMP_pressure;BME280_temperature;BME280_humidity;BME280_pressure;Samples;Min_cycle;Max_cycle;Signal;HPM_P1;HPM_P2
2024/04/11 00:01:05;;;;;;;2.92;0.88;;;;;;;19.12;42.21;102793.66;5397542;26;20003;-68
2024/04/11 00:03:35;;;;;;;4.50;1.02;;;;;;;19.35;41.86;102836.47;5397811;26;20456;-70
2024/04/11 00:06:01;;;;;;;2.88;1.17;;;;;;;19.44;42.08;102857.09;5398316;26;20006;-70
2024/04/11 00:08:26;;;;;;;4.57;1.17;;;;;;;19.42;42.07;102858.97;5400195;26;20344;-67
2024/04/11 00:10:52;;;;;;;4.25;1.10;;;;;;;19.32;42.13;102839.28;5399725;26;20000;-69
2024/04/11 00:13:18;;;;;;;3.42;0.98;;;;;;;19.42;41.87;102851.03;5399804;26;20001;-70
2024/04/11 00:15:44;;;;;;;4.15;1.27;;;;;;;19.33;41.95;102828.59;5399176;26;19995;-71
2024/04/11 00:18:09;;;;;;;5.38;1.13;;;;;;;19.31;41.83;102826.97;5398703;26;20024;-69
2024/04/11 00:20:35;;;;;;;5.30;1.20;;;;;;;19.26;41.86;102803.44;5399068;26;20433;-72
2024/04/11 00:23:00;;;;;;;3.95;1.30;;;;;;;19.33;41.83;102825.97;5399639;26;20016;-71
2024/04/11 00:25:26;;;;;;;3.42;1.15;;;;;;;19.27;41.67;102820.16;5400016;26;20034;-68
2024/04/11 00:27:51;;;;;;;3.78;1.20;;;;;;;19.39;41.71;102838.84;5398931;26;19992;-69
2024/04/11 00:30:17;;;;;;;4.45;1.30;;;;;;;19.20;41.60;102801.13;5400013;26;20448;-68
2024/04/11 00:32:42;;;;;;;4.30;1.00;;;;;;;19.23;41.74;102793.03;5399161;26;20062;-69
2024/04/11 00:35:09;;;;;;;3.33;1.02;;;;;;;19.16;41.70;102776.66;5398974;26;19992;-67
2024/04/11 00:37:36;;;;;;;4.03;1.15;;;;;;;19.28;41.52;102803.34;5399936;26;20064;-68
2024/04/11 00:40:02;;;;;;;3.20;1.05;;;;;;;19.24;41.86;102793.91;5398732;26;19988;-71
2024/04/11 00:42:28;;;;;;;2.97;1.00;;;;;;;19.29;41.75;102799.78;5399326;26;19988;-69
2024/04/11 00:44:53;;;;;;;4.18;1.13;;;;;;;19.26;41.70;102790.22;5395765;26;20119;-69
2024/04/11 00:47:20;;;;;;;3.50;1.42;;;;;;;19.17;41.62;102790.75;5399502;26;19992;-68
2024/04/11 00:49:47;;;;;;;3.50;1.08;;;;;;;19.28;41.68;102800.72;5398617;26;19995;-69
2024/04/11 00:52:13;;;;;;;2.15;0.90;;;;;;;19.26;41.79;102802.59;5399534;26;20051;-71
2024/04/11 00:54:39;;;;;;;3.65;1.00;;;;;;;19.36;41.89;102827.59;5399054;26;19993;-69
2024/04/11 00:57:08;;;;;;;3.70;1.27;;;;;;;19.13;41.47;102795.34;5396095;26;20325;-71
2024/04/11 00:59:40;;;;;;;2.50;0.88;;;;;;;19.35;41.64;102831.16;5399523;26;20002;-72
2024/04/11 01:02:08;;;;;;;3.10;0.85;;;;;;;19.25;41.47;102822.03;5394741;26;19995;-67
2024/04/11 01:04:33;;;;;;;3.30;1.00;;;;;;;19.19;41.26;102810.84;5396786;26;19999;-70
2024/04/11 01:07:08;;;;;;;3.22;1.13;;;;;;;19.34;41.24;102835.63;5398891;26;20006;-68
2024/04/11 01:09:43;;;;;;;4.00;1.08;;;;;;;19.33;41.14;102843.63;5397918;26;19995;-67
2024/04/11 01:12:12;;;;;;;3.90;1.30;;;;;;;19.17;41.58;102818.03;5398803;26;19991;-67
2024/04/11 01:14:37;;;;;;;4.65;1.40;;;;;;;19.18;41.40;102813.59;5397657;26;20045;-70
2024/04/11 01:17:03;;;;;;;4.90;1.10;;;;;;;19.12;41.29;102809.50;5396533;26;20225;-73
2024/04/11 01:19:28;;;;;;;4.22;1.10;;;;;;;19.28;41.16;102832.44;5398796;26;20457;-69
2024/04/11 01:21:55;;;;;;;3.63;1.00;;;;;;;19.30;41.58;102828.78;5398708;26;20036;-68
2024/04/11 01:24:20;;;;;;;2.63;0.90;;;;;;;19.29;41.42;102831.50;5398612;26;19991;-67
2024/04/11 01:26:47;;;;;;;3.88;1.40;;;;;;;19.27;41.36;102821.00;5398716;26;20006;-67
2024/04/11 01:29:13;;;;;;;3.28;1.00;;;;;;;19.16;41.50;102800.44;5399322;26;19992;-70
2024/04/11 01:31:40;;;;;;;4.25;1.40;;;;;;;19.27;41.55;102815.72;5398278;26;20541;-68
2024/04/11 01:34:05;;;;;;;3.13;0.95;;;;;;;19.25;41.59;102803.53;5398481;26;20300;-70
2024/04/11 01:36:30;;;;;;;3.92;1.20;;;;;;;19.27;41.59;102807.78;5398505;26;20026;-70
2024/04/11 01:38:56;;;;;;;4.15;1.02;;;;;;;19.24;41.59;102797.38;5398321;26;20344;-71
2024/04/11 01:41:23;;;;;;;3.85;1.10;;;;;;;19.15;41.62;102768.81;5398706;26;20445;-68
2024/04/11 01:43:49;;;;;;;3.05;0.90;;;;;;;19.26;41.46;102786.72;5398046;26;19992;-69
2024/04/11 01:46:18;;;;;;;5.75;1.10;;;;;;;19.17;41.40;102777.53;5397977;26;20002;-72
2024/04/11 01:48:43;;;;;;;3.40;1.13;;;;;;;19.18;41.33;102780.09;5398343;26;19992;-71
2024/04/11 01:51:09;;;;;;;4.43;1.23;;;;;;;19.19;41.42;102787.06;5398150;26;20003;-71
2024/04/11 01:53:37;;;;;;;4.47;1.08;;;;;;;19.07;41.46;102769.22;5397687;26;20036;-68
2024/04/11 01:56:04;;;;;;;3.70;1.05;;;;;;;19.12;41.45;102780.44;5397262;26;19995;-68
2024/04/11 01:58:30;;;;;;;3.38;1.02;;;;;;;19.01;41.52;102754.59;5397838;26;20006;-69
2024/04/11 02:01:09;;;;;;;4.00;0.90;;;;;;;19.24;41.56;102797.38;5396162;26;19996;-69
2024/04/11 02:03:36;;;;;;;3.97;1.30;;;;;;;19.13;41.36;102789.19;5396747;26;20003;-68
2024/04/11 02:06:03;;;;;;;3.80;1.08;;;;;;;19.10;41.59;102798.13;5394932;26;20010;-68
2024/04/11 02:08:30;;;;;;;3.58;1.00;;;;;;;19.15;41.41;102805.81;5397492;26;20014;-71
2024/04/11 02:10:55;;;;;;;4.10;1.60;;;;;;;19.20;41.42;102812.56;5397958;26;20007;-67
2024/04/11 02:13:21;;;;;;;4.13;1.13;;;;;;;19.20;41.66;102799.34;5399520;26;20039;-68
2024/04/11 02:15:46;;;;;;;3.63;1.08;;;;;;;19.15;41.34;102788.19;5401145;26;20473;-71
2024/04/11 02:18:11;;;;;;;4.68;1.48;;;;;;;19.11;41.38;102781.34;5401913;26;19999;-69
2024/04/11 02:20:38;;;;;;;4.10;1.05;;;;;;;19.11;41.51;102781.34;5401057;26;20434;-71
2024/04/11 02:23:04;;;;;;;3.65;1.00;;;;;;;19.18;41.58;102776.59;5401511;26;20006;-68
2024/04/11 02:25:30;;;;;;;3.17;1.00;;;;;;;19.09;41.63;102769.16;5401251;26;20007;-68
2024/04/11 02:27:56;;;;;;;4.70;1.20;;;;;;;19.05;41.36;102762.34;5400592;26;21543;-68
2024/04/11 02:30:21;;;;;;;3.65;1.10;;;;;;;19.06;41.29;102774.59;5401166;26;19996;-70
2024/04/11 02:32:46;;;;;;;4.38;0.98;;;;;;;19.15;41.44;102797.88;5400887;26;20006;-71
2024/04/11 02:35:14;;;;;;;3.88;1.20;;;;;;;19.17;41.37;102809.25;5400895;26;20804;-69
2024/04/11 02:37:39;;;;;;;3.75;1.08;;;;;;;19.11;41.09;102799.00;5401121;26;19999;-72
2024/04/11 02:40:09;;;;;;;3.58;0.95;;;;;;;19.14;41.33;102806.78;5400676;26;20072;-68
2024/04/11 02:42:37;;;;;;;3.03;1.02;;;;;;;19.05;41.43;102786.13;5400977;26;19991;-68
2024/04/11 02:45:04;;;;;;;3.92;1.30;;;;;;;19.09;40.79;102792.94;5400572;26;20357;-70
2024/04/11 02:47:30;;;;;;;3.42;1.20;;;;;;;19.02;41.49;102781.84;5400534;26;20004;-68
2024/04/11 02:49:56;;;;;;;2.75;0.90;;;;;;;18.93;41.26;102767.38;5400780;26;20006;-69
2024/04/11 02:52:22;;;;;;;4.50;1.05;;;;;;;19.12;41.40;102798.06;5400513;26;20010;-69
2024/04/11 02:54:47;;;;;;;4.00;1.10;;;;;;;19.04;41.21;102779.97;5398600;26;19996;-68
2024/04/11 02:57:13;;;;;;;2.78;1.02;;;;;;;19.05;41.10;102786.97;5399448;26;20008;-70
2024/04/11 02:59:38;;;;;;;2.03;0.80;;;;;;;19.10;41.31;102800.78;5401113;26;20011;-72
2024/04/11 03:02:03;;;;;;;3.05;0.80;;;;;;;19.00;41.25;102789.88;5396659;26;19999;-69
2024/04/11 03:04:29;;;;;;;3.90;1.05;;;;;;;18.91;41.29;102774.50;5400475;26;19991;-70
2024/04/11 03:06:54;;;;;;;3.67;1.05;;;;;;;19.15;41.49;102801.41;5400391;26;19995;-69
2024/04/11 03:09:19;;;;;;;4.20;1.10;;;;;;;19.00;41.45;102778.44;5400319;26;20015;-69
2024/04/11 03:11:45;;;;;;;3.05;0.90;;;;;;;19.03;41.42;102784.41;5400131;26;20010;-69
2024/04/11 03:14:10;;;;;;;3.35;1.20;;;;;;;19.02;41.28;102782.69;5399160;26;20044;-70
2024/04/11 03:16:36;;;;;;;3.97;1.02;;;;;;;19.03;41.28;102778.28;5399729;26;20045;-71
2024/04/11 03:19:02;;;;;;;3.60;1.00;;;;;;;19.07;41.75;102782.44;5399852;26;20068;-72
2024/04/11 03:21:27;;;;;;;2.80;1.00;;;;;;;19.00;41.36;102770.53;5398726;26;20007;-69
2024/04/11 03:23:52;;;;;;;5.00;1.10;;;;;;;18.98;41.53;102773.25;5398652;26;20043;-69
2024/04/11 03:26:17;;;;;;;3.45;1.05;;;;;;;19.02;41.48;102781.84;5400376;26;20069;-69
2024/04/11 03:28:43;;;;;;;2.95;1.10;;;;;;;19.09;41.35;102793.81;5398776;26;20404;-69
2024/04/11 03:31:10;;;;;;;4.80;1.33;;;;;;;19.12;41.59;102798.94;5399764;26;19987;-68
2024/04/11 03:33:36;;;;;;;3.65;1.00;;;;;;;18.97;41.34;102773.34;5398989;26;19996;-68
2024/04/11 03:36:05;;;;;;;3.47;1.10;;;;;;;19.00;41.58;102778.44;5400348;26;20001;-69
2024/04/11 03:38:32;;;;;;;2.63;0.90;;;;;;;19.05;41.41;102778.19;5400435;26;20002;-68
2024/04/11 03:41:08;;;;;;;3.65;0.90;;;;;;;19.04;41.36;102787.91;5399830;26;20429;-68
2024/04/11 03:43:34;;;;;;;2.75;1.10;;;;;;;18.95;41.50;102772.56;5399445;26;19992;-71
2024/04/11 03:46:07;;;;;;;3.60;1.15;;;;;;;19.10;41.27;102790.22;5400014;26;20006;-68
2024/04/11 03:48:33;;;;;;;5.60;1.10;;;;;;;18.99;41.32;102766.16;5399397;26;20287;-72
2024/04/11 03:51:25;;;;;;;3.90;0.93;;;;;;;19.08;41.46;102778.88;5396894;26;20095;-68
2024/04/11 03:53:58;;;;;;;3.55;1.05;;;;;;;18.95;41.35;102756.72;5399844;26;19996;-69
2024/04/11 03:56:27;;;;;;;3.70;1.20;;;;;;;19.02;41.25;102779.22;5400102;26;19995;-68
2024/04/11 03:58:56;;;;;;;3.92;0.90;;;;;;;18.95;41.18;102768.13;5398914;26;20006;-71
2024/04/11 04:01:22;;;;;;;3.90;1.00;;;;;;;18.94;41.32;102766.41;5398753;26;20002;-71
2024/04/11 04:03:52;;;;;;;3.20;1.15;;;;;;;18.94;41.46;102757.66;5397717;26;20011;-69
2024/04/11 04:06:18;;;;;;;5.30;0.93;;;;;;;19.05;41.41;102775.56;5399855;26;20007;-69
2024/04/11 04:08:46;;;;;;;3.90;1.17;;;;;;;18.95;41.50;102757.56;5399520;26;19995;-69
2024/04/11 04:11:13;;;;;;;3.97;1.00;;;;;;;18.95;42.02;102748.78;5400012;26;20004;-71
2024/04/11 04:13:39;;;;;;;3.15;0.95;;;;;;;18.97;41.67;102757.47;5397892;26;20007;-69
2024/04/11 04:16:14;;;;;;;3.35;0.90;;;;;;;19.01;41.67;102756.38;5398923;26;19992;-69
2024/04/11 04:18:42;;;;;;;3.80;1.10;;;;;;;18.60;41.59;102685.50;5399764;26;20077;-70
2024/04/11 04:21:08;;;;;;;3.75;1.10;;;;;;;18.98;41.55;102743.34;5399101;26;20042;-69
2024/04/11 04:23:36;;;;;;;4.47;1.30;;;;;;;18.84;41.61;102731.72;5399970;26;20000;-71
2024/04/11 04:26:08;;;;;;;2.42;0.82;;;;;;;18.98;41.39;102745.97;5397034;26;20015;-72
2024/04/11 04:28:40;;;;;;;3.38;1.30;;;;;;;18.92;41.53;102741.88;5399858;26;20445;-70
2024/04/11 04:31:16;;;;;;;4.72;1.02;;;;;;;19.03;41.31;102762.44;5399299;26;20027;-70
2024/04/11 04:33:47;;;;;;;4.13;1.10;;;;;;;19.02;41.57;102748.34;5398417;26;19995;-72
2024/04/11 04:36:16;;;;;;;3.40;0.93;;;;;;;19.02;41.43;102744.84;5399396;26;20031;-70
2024/04/11 04:38:45;;;;;;;3.78;1.08;;;;;;;18.91;41.68;102726.94;5397848;26;20010;-73
2024/04/11 04:41:12;;;;;;;4.93;1.30;;;;;;;18.91;41.63;102734.88;5396699;26;20023;-71
2024/04/11 04:43:38;;;;;;;5.40;1.17;;;;;;;18.99;41.53;102747.66;5397961;26;20011;-69
2024/04/11 04:46:05;;;;;;;4.82;1.20;;;;;;;19.02;41.45;102744.84;5398964;26;20827;-70
2024/04/11 04:48:31;;;;;;;3.85;1.00;;;;;;;18.91;41.63;102736.69;5398934;26;20028;-69
2024/04/11 04:50:56;;;;;;;3.38;0.95;;;;;;;18.99;41.63;102742.38;5398852;26;20074;-70
2024/04/11 04:53:21;;;;;;;2.88;0.90;;;;;;;18.89;41.62;102722.72;5399249;26;20018;-72
2024/04/11 04:55:47;;;;;;;3.92;1.10;;;;;;;18.92;41.88;102726.03;5397963;26;20366;-69
2024/04/11 04:58:12;;;;;;;3.80;1.10;;;;;;;18.87;41.68;102711.34;5397513;26;20000;-71
2024/04/11 05:00:37;;;;;;;3.10;0.93;;;;;;;18.90;41.80;102724.41;5397799;26;20000;-69
2024/04/11 05:03:08;;;;;;;2.60;0.90;;;;;;;18.84;41.65;102715.03;5397056;26;19995;-71
2024/04/11 05:05:36;;;;;;;4.95;1.00;;;;;;;18.87;41.55;102719.28;5398115;26;20002;-71
2024/04/11 05:08:03;;;;;;;3.67;0.95;;;;;;;18.98;41.87;102749.47;5398745;26;19992;-68
2024/04/11 05:10:28;;;;;;;4.00;0.98;;;;;;;18.90;41.92;102725.25;5398657;26;21273;-69
2024/04/11 05:12:59;;;;;;;3.45;1.10;;;;;;;18.93;41.75;102734.78;5398103;26;20006;-68
2024/04/11 05:15:25;;;;;;;2.80;1.00;;;;;;;18.84;41.75;102726.44;5398152;26;20449;-71
2024/04/11 05:17:50;;;;;;;4.28;1.00;;;;;;;18.88;42.05;102735.03;5398036;26;20094;-72
2024/04/11 05:20:21;;;;;;;3.25;0.90;;;;;;;18.95;41.95;102748.78;5398265;26;20448;-67
2024/04/11 05:22:51;;;;;;;2.97;1.10;;;;;;;18.95;41.92;102749.63;5397676;26;20068;-71
2024/04/11 05:25:19;;;;;;;3.33;0.90;;;;;;;18.80;42.09;102722.25;5398331;26;20498;-68
2024/04/11 05:27:46;;;;;;;4.65;1.50;;;;;;;18.92;42.06;102749.81;5398330;26;19991;-72
2024/04/11 05:30:11;;;;;;;2.80;1.10;;;;;;;18.74;42.14;102721.69;5398460;26;19996;-68
2024/04/11 05:32:43;;;;;;;5.07;1.15;;;;;;;18.82;41.82;102749.44;5398567;26;19996;-71
2024/04/11 05:35:11;;;;;;;3.50;1.10;;;;;;;18.82;42.17;102752.06;5398918;26;20019;-69
2024/04/11 05:37:37;;;;;;;3.25;1.10;;;;;;;18.97;41.89;102782.09;5396705;26;19991;-70
2024/04/11 05:40:05;;;;;;;3.65;1.02;;;;;;;18.93;42.25;102770.00;5397945;26;20642;-70
2024/04/11 05:42:35;;;;;;;3.75;1.33;;;;;;;18.84;42.20;102763.44;5397427;26;20069;-68
2024/04/11 05:45:03;;;;;;;4.45;1.20;;;;;;;18.92;42.37;102780.66;5396136;26;20000;-68
2024/04/11 05:47:30;;;;;;;3.15;0.93;;;;;;;18.99;42.50;102804.03;5396398;26;21754;-67
2024/04/11 05:49:56;;;;;;;3.22;0.85;;;;;;;18.94;42.45;102792.00;5395093;26;20035;-68
2024/04/11 05:52:30;;;;;;;3.80;1.20;;;;;;;18.99;42.50;102803.16;5398395;26;20003;-69
2024/04/11 05:54:56;;;;;;;2.67;1.05;;;;;;;18.90;42.44;102780.75;5394857;26;19999;-68
2024/04/11 05:57:22;;;;;;;3.60;1.00;;;;;;;18.93;42.54;102793.78;5397546;26;19991;-70
2024/04/11 05:59:48;;;;;;;3.70;0.82;;;;;;;19.02;42.42;102814.41;5398033;26;20159;-68
2024/04/11 06:02:13;;;;;;;3.58;0.93;;;;;;;18.92;42.44;102793.88;5396620;26;20035;-68
2024/04/11 06:04:42;;;;;;;3.05;0.90;;;;;;;18.97;42.46;102816.44;5395625;26;19996;-68
2024/04/11 06:07:08;;;;;;;4.47;1.10;;;;;;;19.00;42.73;102812.81;5396399;26;19991;-67
2024/04/11 06:09:34;;;;;;;2.67;1.13;;;;;;;18.99;42.63;102821.66;5398061;26;20011;-70
2024/04/11 06:12:00;;;;;;;3.22;0.95;;;;;;;19.06;42.66;102833.63;5396670;26;20011;-67
2024/04/11 06:14:26;;;;;;;3.45;1.33;;;;;;;19.02;42.75;102830.25;5398098;26;19995;-69
2024/04/11 06:16:51;;;;;;;4.07;1.30;;;;;;;18.88;42.86;102811.66;5397728;26;20000;-67
2024/04/11 06:19:16;;;;;;;3.15;0.98;;;;;;;19.05;42.62;102844.28;5397352;26;20131;-68
2024/04/11 06:21:47;;;;;;;2.47;0.95;;;;;;;19.07;42.79;102850.31;5397983;26;20003;-69
2024/04/11 06:24:12;;;;;;;4.50;1.00;;;;;;;19.08;42.76;102844.94;5398514;26;19995;-68
2024/04/11 06:26:37;;;;;;;4.43;1.10;;;;;;;18.98;42.49;102838.47;5396775;26;19996;-71
2024/04/11 06:29:07;;;;;;;1.92;0.90;;;;;;;18.99;42.74;102840.16;5397983;26;19999;-68
2024/04/11 06:31:33;;;;;;;2.70;1.00;;;;;;;19.11;42.96;102865.94;5398150;26;20008;-68
2024/04/11 06:33:59;;;;;;;2.20;0.95;;;;;;;19.04;42.74;102846.03;5396929;26;20004;-67
2024/04/11 06:36:24;;;;;;;3.47;0.77;;;;;;;18.97;42.58;102842.03;5398015;26;20011;-69
2024/04/11 06:38:51;;;;;;;3.17;0.90;;;;;;;19.10;42.84;102858.91;5395494;26;20024;-69
2024/04/11 06:41:22;;;;;;;2.80;0.95;;;;;;;18.72;42.96;102794.91;5397025;26;20026;-69
2024/04/11 06:44:08;;;;;;;5.28;1.08;;;;;;;19.09;42.90;102854.59;5395126;26;20006;-69
2024/04/11 06:46:34;;;;;;;2.90;0.80;;;;;;;18.97;43.31;102842.03;5396996;26;20437;-68
2024/04/11 06:48:59;;;;;;;4.18;1.00;;;;;;;19.14;43.48;102857.00;5388572;26;20010;-72
2024/04/11 06:51:25;;;;;;;2.55;0.75;;;;;;;19.07;43.96;102847.66;5395436;26;19999;-75
2024/04/11 06:53:51;;;;;;;3.15;1.00;;;;;;;19.10;43.91;102850.16;5394829;26;20777;-71
2024/04/11 06:56:21;;;;;;;3.53;1.17;;;;;;;19.11;43.93;102852.72;5393946;26;20414;-69
2024/04/11 06:58:47;;;;;;;3.03;1.00;;;;;;;18.93;44.00;102812.28;5396005;26;19992;-70
2024/04/11 07:01:15;;;;;;;4.05;1.00;;;;;;;19.07;44.03;102835.31;5396688;26;20369;-69
2024/04/11 07:03:49;;;;;;;3.38;1.00;;;;;;;18.96;43.92;102814.75;5391522;26;20000;-69
2024/04/11 07:06:24;;;;;;;4.40;0.90;;;;;;;19.18;44.23;102840.00;5398490;26;19991;-70
2024/04/11 07:08:52;;;;;;;4.65;1.00;;;;;;;19.17;44.35;102841.81;5396119;26;20010;-71
2024/04/11 07:11:32;;;;;;;4.13;1.35;;;;;;;19.08;44.37;102828.25;5398599;26;20014;-72
2024/04/11 07:13:59;;;;;;;4.13;1.30;;;;;;;19.21;44.52;102848.63;5400277;26;20006;-70
2024/04/11 07:16:32;;;;;;;2.42;0.90;;;;;;;19.24;44.60;102850.25;5398265;26;20441;-70
2024/04/11 07:19:02;;;;;;;5.80;1.00;;;;;;;19.19;44.60;102847.84;5400387;26;20070;-68
2024/04/11 07:21:34;;;;;;;3.17;0.90;;;;;;;19.25;44.47;102856.38;5399003;26;20032;-67
2024/04/11 07:24:03;;;;;;;4.07;1.25;;;;;;;19.03;44.46;102818.78;5400107;26;20006;-68
2024/04/11 07:26:29;;;;;;;6.53;1.10;;;;;;;19.16;44.66;102849.81;5399885;26;19991;-70
2024/04/11 07:28:56;;;;;;;4.15;0.90;;;;;;;19.23;44.60;102859.13;5398560;26;19991;-70
2024/04/11 07:31:21;;;;;;;3.45;1.00;;;;;;;19.27;44.90;102865.09;5400576;26;19995;-68
2024/04/11 07:33:48;;;;;;;3.58;1.05;;;;;;;19.15;45.00;102856.91;5400092;26;20074;-73
2024/04/11 07:36:16;;;;;;;3.08;1.00;;;;;;;19.01;44.75;102833.88;5399915;26;19992;-69
2024/04/11 07:38:42;;;;;;;2.97;0.77;;;;;;;19.11;44.89;102852.72;5399714;26;20779;-68
2024/04/11 07:41:17;;;;;;;3.22;1.00;;;;;;;19.23;45.28;102871.47;5399544;26;20444;-69
2024/04/11 07:43:52;;;;;;;3.78;0.98;;;;;;;19.28;45.02;102877.38;5399460;26;19996;-68
2024/04/11 07:46:19;;;;;;;3.85;1.20;;;;;;;19.29;45.31;102889.66;5400694;26;19999;-68
2024/04/11 07:48:47;;;;;;;3.72;1.05;;;;;;;19.15;45.16;102866.59;5428037;26;19991;-70
2024/04/11 07:51:13;;;;;;;2.63;0.90;;;;;;;19.28;45.32;102896.75;5399534;26;20006;-68
2024/04/11 07:53:41;;;;;;;3.95;1.10;;;;;;;19.27;45.27;102897.69;5400213;26;20333;-70
2024/04/11 07:56:09;;;;;;;3.05;0.90;;;;;;;19.18;45.34;102885.81;5399697;26;19995;-70
2024/04/11 07:58:34;;;;;;;5.78;1.17;;;;;;;19.17;45.59;102893.84;5399055;26;20007;-71
2024/04/11 08:01:01;;;;;;;3.92;1.10;;;;;;;19.29;45.87;102913.47;5399882;26;20290;-70
2024/04/11 08:03:27;;;;;;;3.45;0.95;;;;;;;19.19;45.74;102913.09;5396257;26;20084;-71
2024/04/11 08:05:52;;;;;;;3.13;0.90;;;;;;;19.25;45.95;102914.53;5399891;26;19999;-69
2024/04/11 08:08:21;;;;;;;2.47;0.90;;;;;;;19.20;45.63;102910.38;5398972;26;20298;-69
2024/04/11 08:10:50;;;;;;;2.30;0.80;;;;;;;19.23;45.94;102922.56;5393997;26;20097;-73
2024/04/11 08:13:18;;;;;;;4.93;1.20;;;;;;;19.29;46.00;102932.81;5396468;26;20018;-72
2024/04/11 08:15:44;;;;;;;4.97;1.20;;;;;;;19.28;46.30;102932.88;5397324;26;20009;-71
2024/04/11 08:18:11;;;;;;;3.35;1.10;;;;;;;19.26;46.16;102932.97;5398008;26;19996;-69
2024/04/11 08:20:36;;;;;;;2.55;0.90;;;;;;;19.16;46.24;102916.75;5399150;26;20539;-70
2024/04/11 08:23:02;;;;;;;4.65;0.90;;;;;;;19.28;46.37;102935.53;5396441;26;20039;-72
2024/04/11 08:25:27;;;;;;;5.10;0.90;;;;;;;19.33;46.06;102950.22;5395494;26;19999;-75
2024/04/11 08:27:54;;;;;;;4.13;1.20;;;;;;;19.29;46.12;102955.75;5398495;26;20537;-68
2024/04/11 08:30:20;;;;;;;4.50;0.90;;;;;;;19.28;46.30;102940.81;5397200;26;20706;-69
2024/04/11 08:32:48;;;;;;;3.45;0.93;;;;;;;19.40;46.22;102961.31;5395617;26;19995;-69
2024/04/11 08:35:17;;;;;;;3.03;0.98;;;;;;;19.33;46.43;102955.50;5398805;26;19996;-71
2024/04/11 08:37:45;;;;;;;2.83;1.00;;;;;;;19.42;46.39;102974.47;5398184;26;20023;-70
2024/04/11 08:40:10;;;;;;;3.00;0.90;;;;;;;19.43;46.47;102978.81;5398477;26;20663;-68
2024/04/11 08:42:42;;;;;;;4.25;0.93;;;;;;;19.30;46.46;102962.75;5395166;26;19992;-72
2024/04/11 08:45:09;;;;;;;7.07;1.17;;;;;;;19.36;46.29;102971.22;5398099;26;20010;-69
2024/04/11 08:47:34;;;;;;;2.92;1.10;;;;;;;19.35;46.63;102968.66;5397900;26;19995;-73
2024/04/11 08:50:00;;;;;;;2.53;0.90;;;;;;;19.42;46.63;102979.75;5398775;26;20526;-72
2024/04/11 08:52:30;;;;;;;3.70;1.00;;;;;;;19.43;46.63;102984.13;5398408;26;19999;-70
2024/04/11 08:54:56;;;;;;;3.13;0.90;;;;;;;19.37;46.80;102972.06;5397183;26;20408;-73
2024/04/11 08:57:21;;;;;;;3.25;1.20;;;;;;;19.35;47.01;102966.00;5398650;26;20065;-72
2024/04/11 08:59:50;;;;;;;4.63;1.27;;;;;;;19.44;46.65;102965.53;5397329;26;20007;-71
2024/04/11 09:02:16;;;;;;;4.60;1.05;;;;;;;19.42;46.92;102977.94;5396435;26;20012;-71
2024/04/11 09:04:41;;;;;;;3.50;1.08;;;;;;;19.40;47.01;102971.91;5397589;26;20110;-72
2024/04/11 09:07:20;;;;;;;5.30;1.30;;;;;;;19.37;47.00;102966.78;5394989;26;20551;-72
2024/04/11 09:09:46;;;;;;;3.45;1.17;;;;;;;19.52;46.80;102973.06;5396329;26;20023;-70
2024/04/11 09:12:14;;;;;;;4.20;0.90;;;;;;;19.38;47.09;102957.91;5396030;26;20424;-71
2024/04/11 09:14:40;;;;;;;3.50;1.05;;;;;;;19.50;47.36;102993.41;5394873;26;20020;-71
2024/04/11 09:17:06;;;;;;;3.60;0.98;;;;;;;19.42;47.06;102980.59;5397599;26;20011;-68
2024/04/11 09:19:39;;;;;;;5.75;1.15;;;;;;;19.53;47.01;103001.19;5397104;26;19996;-70
2024/04/11 09:22:08;;;;;;;3.88;1.00;;;;;;;19.45;47.13;102993.66;5393424;26;20006;-69
2024/04/11 09:24:34;;;;;;;3.42;1.08;;;;;;;19.45;47.16;102995.44;5396914;26;19995;-72
2024/04/11 09:27:04;;;;;;;3.28;1.17;;;;;;;19.39;47.21;102989.56;5397406;26;20013;-71
2024/04/11 09:29:29;;;;;;;3.92;1.25;;;;;;;19.46;47.22;102992.72;5397134;26;19995;-72
2024/04/11 09:31:56;;;;;;;3.30;0.85;;;;;;;19.57;47.32;103015.97;5397776;26;19999;-70
2024/04/11 09:34:27;;;;;;;2.53;0.90;;;;;;;19.54;47.13;103021.41;5398023;26;20305;-73
2024/04/11 09:36:53;;;;;;;3.28;1.13;;;;;;;19.52;47.36;103018.00;5396720;26;20076;-71
2024/04/11 09:42:12;;;;;;;3.95;0.90;;;;;;;19.50;47.16;103010.16;5397034;26;20069;-70
2024/04/11 09:44:48;;;;;;;3.92;1.17;;;;;;;19.49;47.41;103004.94;5380199;26;19996;-70
2024/04/11 09:47:26;;;;;;;4.57;1.23;;;;;;;19.59;47.40;103022.03;5395655;26;19999;-68
2024/04/11 09:49:53;;;;;;;3.85;1.00;;;;;;;19.57;47.35;103014.16;5395939;26;20009;-71
2024/04/11 09:52:26;;;;;;;3.10;1.20;;;;;;;19.47;47.46;102990.94;5396544;26;20033;-72
2024/04/11 09:54:51;;;;;;;4.32;1.10;;;;;;;19.58;47.45;103015.00;5395769;26;20006;-70
2024/04/11 09:57:19;;;;;;;3.75;1.10;;;;;;;19.61;47.59;103021.94;5394355;26;19996;-69
2024/04/11 09:59:44;;;;;;;3.17;1.10;;;;;;;19.55;47.71;103007.22;5397069;26;20011;-69
2024/04/11 10:02:13;;;;;;;5.10;1.10;;;;;;;19.54;47.78;103010.84;5396059;26;20641;-70
2024/04/11 10:04:42;;;;;;;4.00;1.15;;;;;;;19.60;47.67;103025.50;5408913;26;20000;-71
2024/04/11 10:07:08;;;;;;;4.43;1.02;;;;;;;19.45;47.52;103001.59;5395333;26;19995;-72
2024/04/11 10:09:34;;;;;;;3.13;0.90;;;;;;;19.61;47.39;103033.38;5397442;26;20080;-69
2024/04/11 10:12:11;;;;;;;5.68;1.10;;;;;;;19.63;47.79;103042.09;5396213;26;20409;-70
2024/04/11 10:14:40;;;;;;;3.38;1.23;;;;;;;19.57;47.62;103043.25;5394510;26;20003;-69
2024/04/11 10:17:07;;;;;;;4.47;1.00;;;;;;;19.61;47.63;103045.75;5396343;26;19995;-69
2024/04/11 10:19:35;;;;;;;3.28;1.02;;;;;;;19.43;47.82;103019.34;5397405;26;20015;-71
2024/04/11 10:22:04;;;;;;;2.95;1.00;;;;;;;19.51;47.88;103032.16;5398071;26;20010;-68
2024/04/11 10:24:32;;;;;;;2.45;0.95;;;;;;;19.61;47.92;103038.66;5397280;26;20000;-74
2024/04/11 10:27:09;;;;;;;3.75;1.40;;;;;;;19.52;47.83;103020.66;5397282;26;20348;-69
2024/04/11 10:29:36;;;;;;;2.85;0.90;;;;;;;19.55;47.79;103034.56;5397660;26;20010;-71
2024/04/11 10:32:02;;;;;;;4.63;1.00;;;;;;;19.50;48.07;103023.38;5396407;26;20457;-69
2024/04/11 10:34:37;;;;;;;2.65;0.80;;;;;;;19.64;47.69;103050.88;5399159;26;21291;-67
2024/04/11 10:37:07;;;;;;;3.60;1.20;;;;;;;19.64;48.05;103066.75;5400686;26;19992;-67
2024/04/11 10:39:38;;;;;;;3.55;1.40;;;;;;;19.51;48.07;103050.66;5400469;26;20011;-66
2024/04/11 10:42:07;;;;;;;3.42;0.93;;;;;;;19.59;47.75;103077.56;5400387;26;20000;-67
2024/04/11 10:44:36;;;;;;;3.85;1.15;;;;;;;19.58;48.29;103086.41;5401079;26;19996;-68
2024/04/11 10:47:07;;;;;;;3.33;1.10;;;;;;;19.56;48.23;103067.97;5398295;26;20408;-68
2024/04/11 10:49:41;;;;;;;4.35;1.25;;;;;;;19.40;48.59;103051.22;5397583;26;20012;-70
2024/04/11 10:52:10;;;;;;;5.50;1.42;;;;;;;19.61;48.36;103082.78;5398892;26;19996;-71
2024/04/11 10:54:36;;;;;;;4.05;1.30;;;;;;;19.55;48.69;103073.34;5400329;26;20011;-67
2024/04/11 10:57:03;;;;;;;3.70;1.30;;;;;;;19.52;48.35;103071.75;5399273;26;20123;-70
2024/04/11 10:59:32;;;;;;;4.47;1.50;;;;;;;19.48;48.78;103061.41;5399429;26;20312;-72
2024/04/11 11:02:07;;;;;;;7.25;1.50;;;;;;;19.52;48.81;103077.03;5397650;26;20008;-70
2024/04/11 11:04:34;;;;;;;5.70;1.48;;;;;;;19.47;48.70;103063.19;5398558;26;20345;-69
2024/04/11 11:07:09;;;;;;;3.65;1.40;;;;;;;19.50;48.87;103067.47;5398893;26;20002;-69
2024/04/11 11:09:37;;;;;;;3.90;1.50;;;;;;;19.49;48.75;103065.78;5399351;26;20773;-74
2024/04/11 11:12:03;;;;;;;6.65;1.38;;;;;;;19.49;49.19;103071.06;5399820;26;20006;-68
2024/04/11 11:14:29;;;;;;;4.82;1.63;;;;;;;19.64;49.17;103095.84;5399091;26;20297;-68
2024/04/11 11:17:01;;;;;;;5.78;1.40;;;;;;;19.54;49.19;103072.50;5399887;26;19995;-69
2024/04/11 11:19:30;;;;;;;4.15;1.50;;;;;;;19.52;48.97;103070.91;5399743;26;20475;-69
2024/04/11 11:21:59;;;;;;;4.47;1.27;;;;;;;19.51;49.39;103072.66;5398768;26;19991;-71
2024/04/11 11:24:27;;;;;;;4.60;1.88;;;;;;;19.55;48.78;103076.88;5399656;26;19996;-70
2024/04/11 11:27:00;;;;;;;5.00;1.40;;;;;;;19.52;49.22;103065.63;5425071;26;21120;-70
2024/04/11 11:29:26;;;;;;;4.68;1.67;;;;;;;19.63;49.23;103079.13;5397937;26;20003;-70